createdAt,value
2022-09-11T00:01:19.174Z,85.80
2022-09-11T00:03:47.987Z,85.90
2022-09-11T00:06:28.814Z,86.20
2022-09-11T00:09:00.741Z,86.00
2022-09-11T00:11:34.005Z,86.30
2022-09-11T00:14:02.341Z,86.60
2022-09-11T00:16:33.993Z,86.50
2022-09-11T00:19:04.852Z,86.30
2022-09-11T00:21:33.191Z,86.20
2022-09-11T00:24:01.516Z,86.50
2022-09-11T00:26:30.854Z,86.30
2022-09-11T00:29:01.810Z,85.70
2022-09-11T00:31:32.419Z,86.10
2022-09-11T00:34:00.623Z,86.40
2022-09-11T00:36:31.525Z,85.70
2022-09-11T00:39:00.301Z,86.00
2022-09-11T00:41:31.820Z,86.30
2022-09-11T00:44:02.776Z,86.90
2022-09-11T00:46:35.728Z,86.10
2022-09-11T00:49:14.486Z,86.60
2022-09-11T00:51:43.274Z,86.60
2022-09-11T00:54:14.462Z,86.20
2022-09-11T00:56:44.983Z,86.30
2022-09-11T00:59:13.603Z,86.40
2022-09-11T01:01:42.025Z,86.70
2022-09-11T01:04:11.583Z,86.50
2022-09-11T01:06:40.158Z,86.30
2022-09-11T01:09:08.021Z,86.30
2022-09-11T01:11:49.361Z,86.10
2022-09-11T01:14:32.459Z,85.80
2022-09-11T01:17:12.780Z,85.70
2022-09-11T01:20:00.813Z,85.60
2022-09-11T01:22:56.451Z,85.50
2022-09-11T01:25:27.864Z,86.00
2022-09-11T01:28:00.945Z,86.30
2022-09-11T01:30:34.442Z,85.90
2022-09-11T01:33:13.689Z,86.20
2022-09-11T01:35:54.004Z,86.40
2022-09-11T01:38:26.895Z,86.30
2022-09-11T01:40:58.171Z,85.90
2022-09-11T01:43:30.638Z,85.90
2022-09-11T01:46:01.809Z,86.20
2022-09-11T01:48:34.304Z,86.10
2022-09-11T01:51:04.903Z,86.20
2022-09-11T01:53:38.000Z,86.40
2022-09-11T01:56:09.140Z,86.30
2022-09-11T01:58:41.507Z,86.60
2022-09-11T02:01:16.020Z,86.80
2022-09-11T02:03:47.087Z,86.90
2022-09-11T02:06:18.829Z,86.90
2022-09-11T02:08:50.111Z,87.30
2022-09-11T02:11:19.448Z,87.00
2022-09-11T02:13:59.709Z,87.00
2022-09-11T02:16:43.611Z,86.80
2022-09-11T02:19:14.334Z,86.80
2022-09-11T02:21:42.436Z,86.80
2022-09-11T02:24:10.742Z,86.80
2022-09-11T02:26:43.932Z,86.80
2022-09-11T02:29:14.613Z,87.00
2022-09-11T02:31:43.722Z,86.40
2022-09-11T02:34:13.454Z,86.90
2022-09-11T02:37:04.905Z,87.00
2022-09-11T02:39:49.722Z,87.10
2022-09-11T02:42:31.279Z,87.00
2022-09-11T02:45:12.190Z,87.10
2022-09-11T02:47:48.530Z,87.30
2022-09-11T02:50:26.013Z,87.30
2022-09-11T02:52:59.718Z,86.70
2022-09-11T02:55:36.898Z,86.50
2022-09-11T02:58:09.942Z,85.80
2022-09-11T03:00:40.063Z,86.20
2022-09-11T03:03:08.018Z,85.90
2022-09-11T03:05:37.200Z,86.40
2022-09-11T03:08:05.364Z,86.60
2022-09-11T03:10:33.369Z,86.60
2022-09-11T03:13:01.327Z,86.80
2022-09-11T03:15:29.223Z,86.20
2022-09-11T03:17:58.741Z,86.20
2022-09-11T03:20:26.995Z,86.40
2022-09-11T03:22:54.864Z,86.50
2022-09-11T03:25:24.532Z,86.30
2022-09-11T03:27:52.412Z,86.10
2022-09-11T03:30:20.424Z,86.10
2022-09-11T03:32:48.578Z,85.90
2022-09-11T03:35:17.799Z,86.30
2022-09-11T03:37:47.517Z,86.00
2022-09-11T03:40:15.605Z,86.30
2022-09-11T03:42:43.468Z,85.90
2022-09-11T03:45:12.019Z,86.60
2022-09-11T03:47:40.518Z,86.30
2022-09-11T03:50:09.123Z,86.20
2022-09-11T03:52:39.075Z,86.50
2022-09-11T03:55:08.334Z,86.60
2022-09-11T03:57:36.568Z,86.40
2022-09-11T04:00:06.529Z,86.90
2022-09-11T04:02:34.462Z,86.70
2022-09-11T04:05:03.687Z,86.70
2022-09-11T04:07:32.020Z,86.80
2022-09-11T04:10:01.416Z,86.70
2022-09-11T04:12:29.254Z,86.90
2022-09-11T04:14:57.201Z,87.00
2022-09-11T04:17:25.464Z,86.90
2022-09-11T04:19:53.610Z,87.10
2022-09-11T04:22:21.465Z,87.00
2022-09-11T04:24:49.307Z,86.70
2022-09-11T04:27:18.700Z,86.00
2022-09-11T04:29:46.641Z,85.50
2022-09-11T04:32:14.547Z,85.90
2022-09-11T04:34:42.562Z,85.80
2022-09-11T04:37:11.563Z,85.50
2022-09-11T04:39:39.610Z,85.60
2022-09-11T04:42:09.262Z,85.40
2022-09-11T04:44:39.169Z,85.00
2022-09-11T04:47:07.140Z,85.00
2022-09-11T04:49:35.233Z,84.90
2022-09-11T04:52:06.039Z,84.80
2022-09-11T04:54:34.914Z,85.30
2022-09-11T04:57:04.172Z,85.40
2022-09-11T04:59:32.086Z,85.50
2022-09-11T05:02:01.361Z,85.40
2022-09-11T05:04:29.259Z,85.80
2022-09-11T05:06:57.161Z,85.40
2022-09-11T05:09:27.243Z,85.40
2022-09-11T05:11:56.946Z,85.60
2022-09-11T05:14:25.384Z,85.50
2022-09-11T05:16:53.262Z,85.90
2022-09-11T05:19:22.926Z,86.00
2022-09-11T05:21:51.079Z,85.90
2022-09-11T05:24:18.996Z,85.50
2022-09-11T05:26:46.915Z,85.50
2022-09-11T05:29:16.520Z,85.80
2022-09-11T05:31:44.479Z,86.00
2022-09-11T05:34:12.432Z,86.00
2022-09-11T05:36:41.772Z,86.00
2022-09-11T05:39:10.556Z,85.80
2022-09-11T05:41:38.548Z,85.60
2022-09-11T05:44:06.582Z,85.90
2022-09-11T05:46:34.468Z,85.50
2022-09-11T05:49:02.640Z,84.80
2022-09-11T05:51:30.464Z,84.70
2022-09-11T05:53:59.785Z,85.30
2022-09-11T05:56:28.287Z,85.50
2022-09-11T05:58:56.272Z,85.50
2022-09-11T06:01:25.969Z,84.80
2022-09-11T06:03:54.443Z,84.50
2022-09-11T06:06:23.761Z,85.00
2022-09-11T06:08:53.052Z,84.90
2022-09-11T06:11:23.284Z,84.70
2022-09-11T06:13:51.505Z,84.40
2022-09-11T06:16:21.163Z,84.20
2022-09-11T06:18:50.166Z,83.60
2022-09-11T06:21:20.626Z,83.50
2022-09-11T06:23:49.640Z,83.50
2022-09-11T06:26:19.285Z,83.50
2022-09-11T06:28:49.171Z,83.80
2022-09-11T06:31:19.222Z,83.60
2022-09-11T06:33:47.992Z,83.60
2022-09-11T06:36:17.525Z,84.10
2022-09-11T06:38:45.777Z,83.70
2022-09-11T06:41:16.104Z,83.80
2022-09-11T06:43:45.181Z,83.70
2022-09-11T06:46:16.175Z,83.10
2022-09-11T06:48:45.203Z,81.70
2022-09-11T06:51:14.653Z,81.80
2022-09-11T06:53:42.962Z,80.60
2022-09-11T06:56:13.806Z,80.20
2022-09-11T06:58:42.075Z,80.60
2022-09-11T07:01:12.318Z,81.10
2022-09-11T07:03:45.018Z,81.20
2022-09-11T07:06:13.168Z,81.60
2022-09-11T07:08:41.120Z,81.30
2022-09-11T07:11:11.387Z,80.90
2022-09-11T07:13:39.797Z,81.50
2022-09-11T07:16:10.044Z,81.00
2022-09-11T07:18:39.076Z,82.10
2022-09-11T07:21:09.452Z,80.60
2022-09-11T07:23:37.344Z,80.80
2022-09-11T07:26:07.268Z,77.90
2022-09-11T07:28:37.614Z,78.50
2022-09-11T07:31:11.701Z,78.20
2022-09-11T07:33:40.570Z,78.60
2022-09-11T07:36:12.035Z,77.90
2022-09-11T07:38:41.655Z,77.40
2022-09-11T07:41:10.559Z,77.00
2022-09-11T07:43:39.445Z,77.40
2022-09-11T07:46:08.069Z,78.30
2022-09-11T07:48:35.932Z,77.60
2022-09-11T07:51:06.265Z,78.20
2022-09-11T07:53:37.382Z,77.90
2022-09-11T07:56:06.403Z,78.20
2022-09-11T07:58:35.194Z,77.60
2022-09-11T08:01:05.148Z,77.00
2022-09-11T08:03:34.318Z,78.00
2022-09-11T08:06:03.817Z,78.10
2022-09-11T08:08:32.045Z,76.70
2022-09-11T08:11:05.843Z,75.50
2022-09-11T08:13:34.202Z,75.70
2022-09-11T08:16:02.210Z,73.40
2022-09-11T08:18:30.832Z,72.10
2022-09-11T08:21:04.234Z,71.80
2022-09-11T08:23:33.206Z,71.30
2022-09-11T08:26:06.676Z,71.70
2022-09-11T08:28:36.121Z,71.70
2022-09-11T08:31:05.266Z,69.70
2022-09-11T08:33:34.258Z,67.60
2022-09-11T08:36:04.037Z,67.60
2022-09-11T08:38:33.244Z,63.20
2022-09-11T08:41:12.991Z,62.10
2022-09-11T08:43:47.500Z,59.20
2022-09-11T08:46:17.025Z,59.90
2022-09-11T08:48:50.819Z,61.70
2022-09-11T08:51:19.295Z,57.60
2022-09-11T08:53:47.609Z,58.90
2022-09-11T08:56:22.387Z,56.30
2022-09-11T08:59:11.522Z,58.30
2022-09-11T09:01:48.043Z,57.50
2022-09-11T09:04:33.075Z,56.40
2022-09-11T09:07:08.803Z,55.90
2022-09-11T09:09:45.876Z,55.50
2022-09-11T09:12:23.738Z,57.10
2022-09-11T09:15:17.239Z,58.30
2022-09-11T09:17:50.183Z,58.60
2022-09-11T09:20:22.619Z,58.10
2022-09-11T09:22:55.245Z,56.00
2022-09-11T09:25:24.178Z,52.10
2022-09-11T09:28:00.462Z,51.30
2022-09-11T09:30:38.070Z,51.60
2022-09-11T09:33:21.464Z,48.90
2022-09-11T09:35:49.913Z,52.00
2022-09-11T09:38:26.398Z,50.10
2022-09-11T09:41:10.001Z,48.90
2022-09-11T09:43:49.358Z,49.70
2022-09-11T09:46:23.767Z,47.60
2022-09-11T09:48:52.096Z,48.50
2022-09-11T09:51:20.133Z,50.00
2022-09-11T09:53:51.630Z,51.70
2022-09-11T09:56:23.697Z,53.00
2022-09-11T09:59:00.941Z,51.30
2022-09-11T10:01:46.517Z,52.90
2022-09-11T10:04:21.404Z,52.90
2022-09-11T10:06:53.008Z,54.00
2022-09-11T10:09:24.346Z,53.80
2022-09-11T10:12:02.886Z,55.00
2022-09-11T10:14:51.052Z,54.80
2022-09-11T10:17:24.706Z,54.00
2022-09-11T10:19:55.688Z,53.40
2022-09-11T10:22:26.260Z,50.80
2022-09-11T10:25:05.183Z,49.70
2022-09-11T10:27:36.195Z,46.50
2022-09-11T10:30:06.241Z,46.60
2022-09-11T10:32:40.490Z,46.60
2022-09-11T10:35:11.045Z,48.10
2022-09-11T10:37:39.203Z,50.40
2022-09-11T10:40:19.666Z,49.80
2022-09-11T10:42:48.495Z,48.70
2022-09-11T10:45:20.088Z,47.30
2022-09-11T10:47:48.429Z,47.20
2022-09-11T10:50:26.915Z,42.60
2022-09-11T10:53:10.792Z,45.20
2022-09-11T10:55:44.889Z,45.30
2022-09-11T10:58:17.036Z,45.00
2022-09-11T11:00:46.637Z,43.50
2022-09-11T11:03:18.267Z,42.50
2022-09-11T11:05:59.887Z,42.00
2022-09-11T11:08:59.884Z,42.60
2022-09-11T11:11:42.726Z,43.60
2022-09-11T11:14:32.184Z,44.30
2022-09-11T11:17:09.911Z,44.20
2022-09-11T11:19:51.643Z,44.40
2022-09-11T11:22:34.422Z,45.00
2022-09-11T11:25:16.073Z,46.40
2022-09-11T11:28:05.272Z,46.80
2022-09-11T11:30:38.579Z,47.00
2022-09-11T11:33:39.060Z,46.50
2022-09-11T11:36:11.000Z,45.60
2022-09-11T11:38:44.661Z,45.10
2022-09-11T11:41:19.498Z,44.80
2022-09-11T11:43:49.252Z,45.10
2022-09-11T11:46:21.656Z,47.00
2022-09-11T11:48:56.978Z,48.00
2022-09-11T11:51:28.271Z,48.20
2022-09-11T11:54:02.999Z,48.10
2022-09-11T11:56:38.926Z,47.80
2022-09-11T11:59:15.097Z,46.90
2022-09-11T12:01:48.230Z,46.70
2022-09-11T12:04:35.516Z,47.30
2022-09-11T12:07:05.039Z,47.60
2022-09-11T12:09:34.106Z,48.10
2022-09-11T12:12:07.475Z,47.30
2022-09-11T12:14:35.472Z,46.10
2022-09-11T12:17:19.909Z,44.20
2022-09-11T12:20:25.253Z,44.90
2022-09-11T12:22:54.467Z,43.40
2022-09-11T12:26:06.044Z,43.20
2022-09-11T12:28:34.740Z,44.40
2022-09-11T12:31:06.113Z,42.40
2022-09-11T12:33:55.389Z,42.10
2022-09-11T12:36:30.974Z,44.90
2022-09-11T12:39:03.543Z,44.80
2022-09-11T12:41:33.860Z,45.30
2022-09-11T12:44:02.515Z,46.60
2022-09-11T12:47:13.635Z,48.00
2022-09-11T12:49:43.517Z,49.10
2022-09-11T12:52:25.297Z,51.30
2022-09-11T12:54:55.434Z,53.00
2022-09-11T12:57:28.931Z,55.20
2022-09-11T13:00:00.158Z,56.50
2022-09-11T13:02:37.871Z,57.20
2022-09-11T13:05:16.279Z,58.40
2022-09-11T13:07:47.773Z,58.90
2022-09-11T13:10:33.469Z,56.70
2022-09-11T13:13:03.524Z,58.80
2022-09-11T13:15:41.136Z,58.20
2022-09-11T13:18:36.024Z,57.50
2022-09-11T13:21:14.764Z,57.40
2022-09-11T13:23:43.472Z,58.50
2022-09-11T13:26:20.448Z,57.70
2022-09-11T13:28:51.389Z,55.90
2022-09-11T13:31:21.486Z,55.40
2022-09-11T13:33:50.872Z,55.20
2022-09-11T13:36:22.992Z,54.50
2022-09-11T13:38:54.524Z,54.00
2022-09-11T13:41:28.896Z,53.20
2022-09-11T13:43:59.642Z,52.90
2022-09-11T13:46:28.805Z,51.10
2022-09-11T13:49:00.282Z,52.20
2022-09-11T13:51:31.291Z,50.40
2022-09-11T13:54:07.597Z,50.10
2022-09-11T13:56:47.132Z,47.80
2022-09-11T13:59:36.889Z,47.60
2022-09-11T14:02:08.537Z,44.90
2022-09-11T14:04:42.880Z,43.90
2022-09-11T14:07:18.867Z,42.60
2022-09-11T14:09:57.969Z,42.70
2022-09-11T14:12:28.099Z,42.80
2022-09-11T14:14:59.376Z,41.90
2022-09-11T14:17:27.610Z,42.10
2022-09-11T14:20:01.118Z,42.00
2022-09-11T14:22:32.054Z,42.60
2022-09-11T14:25:05.528Z,43.60
2022-09-11T14:27:42.635Z,44.10
2022-09-11T14:30:37.111Z,45.30
2022-09-11T14:33:23.213Z,42.90
2022-09-11T14:35:53.367Z,43.50
2022-09-11T14:38:24.325Z,44.00
2022-09-11T14:40:57.896Z,44.00
2022-09-11T14:43:32.569Z,43.70
2022-09-11T14:46:01.375Z,43.80
2022-09-11T14:48:31.149Z,45.00
2022-09-11T14:51:00.376Z,44.10
2022-09-11T14:53:30.565Z,44.10
2022-09-11T14:56:00.282Z,44.40
2022-09-11T14:58:30.436Z,45.80
2022-09-11T15:00:58.384Z,45.40
2022-09-11T15:03:26.422Z,45.40
2022-09-11T15:05:57.310Z,46.00
2022-09-11T15:08:26.256Z,45.70
2022-09-11T15:10:54.721Z,46.10
2022-09-11T15:13:22.961Z,46.20
2022-09-11T15:15:52.285Z,45.20
2022-09-11T15:18:20.265Z,44.60
2022-09-11T15:20:48.228Z,44.50
2022-09-11T15:23:16.517Z,45.40
2022-09-11T15:25:44.372Z,45.60
2022-09-11T15:28:12.605Z,45.70
2022-09-11T15:30:40.491Z,46.00
2022-09-11T15:33:10.183Z,45.80
2022-09-11T15:35:38.039Z,46.10
2022-09-11T15:38:06.354Z,45.80
2022-09-11T15:40:36.345Z,46.70
2022-09-11T15:43:04.177Z,45.90
2022-09-11T15:45:32.816Z,45.50
2022-09-11T15:48:00.726Z,44.80
2022-09-11T15:50:30.281Z,45.30
2022-09-11T15:52:58.834Z,45.00
2022-09-11T15:55:30.173Z,44.70
2022-09-11T15:58:00.819Z,43.80
2022-09-11T16:00:29.375Z,44.50
2022-09-11T16:02:57.581Z,44.80
2022-09-11T16:05:25.664Z,45.40
2022-09-11T16:07:54.922Z,45.30
2022-09-11T16:10:23.327Z,45.40
2022-09-11T16:12:53.551Z,45.40
2022-09-11T16:15:25.166Z,45.20
2022-09-11T16:17:53.050Z,44.70
2022-09-11T16:20:20.884Z,43.70
2022-09-11T16:22:48.781Z,44.40
2022-09-11T16:25:19.718Z,44.50
2022-09-11T16:27:47.716Z,44.70
2022-09-11T16:30:39.623Z,44.90
2022-09-11T16:33:04.046Z,45.00
2022-09-11T16:35:32.216Z,44.90
2022-09-11T16:38:00.894Z,45.00
2022-09-11T16:40:30.163Z,45.30
2022-09-11T16:42:58.488Z,45.30
2022-09-11T16:45:26.367Z,45.90
2022-09-11T16:47:54.234Z,46.10
2022-09-11T16:50:24.280Z,46.50
2022-09-11T16:52:52.409Z,46.40
2022-09-11T16:55:20.300Z,46.90
2022-09-11T16:57:49.483Z,47.30
2022-09-11T17:00:17.513Z,49.30
2022-09-11T17:02:45.401Z,50.00
2022-09-11T17:05:13.869Z,51.10
2022-09-11T17:07:41.891Z,51.80
2022-09-11T17:10:10.687Z,52.20
2022-09-11T17:12:38.525Z,53.30
2022-09-11T17:15:09.447Z,53.30
2022-09-11T17:17:37.967Z,53.80
2022-09-11T17:20:09.321Z,54.00
2022-09-11T17:22:37.388Z,54.10
2022-09-11T17:25:05.849Z,55.10
2022-09-11T17:27:36.232Z,56.10
2022-09-11T17:30:04.519Z,57.30
2022-09-11T17:32:33.700Z,58.30
2022-09-11T17:35:01.785Z,58.80
2022-09-11T17:37:29.721Z,59.80
2022-09-11T17:39:58.831Z,59.80
2022-09-11T17:42:28.787Z,60.10
2022-09-11T17:44:57.337Z,60.00
2022-09-11T17:47:25.469Z,61.10
2022-09-11T17:49:54.651Z,60.80
2022-09-11T17:52:22.714Z,61.20
2022-09-11T17:54:50.553Z,61.40
2022-09-11T17:57:18.422Z,61.40
2022-09-11T17:59:48.864Z,61.10
2022-09-11T18:02:18.161Z,61.70
2022-09-11T18:04:47.689Z,61.80
2022-09-11T18:07:17.309Z,62.70
2022-09-11T18:09:45.506Z,63.20
2022-09-11T18:12:14.547Z,63.00
2022-09-11T18:14:43.804Z,63.80
2022-09-11T18:17:11.873Z,63.70
2022-09-11T18:19:39.776Z,63.90
2022-09-11T18:22:09.740Z,64.00
2022-09-11T18:24:40.020Z,64.30
2022-09-11T18:27:09.778Z,64.20
2022-09-11T18:29:39.976Z,64.30
2022-09-11T18:32:09.898Z,63.50
2022-09-11T18:34:38.152Z,64.70
2022-09-11T18:37:07.589Z,64.70
2022-09-11T18:39:35.624Z,64.70
2022-09-11T18:42:07.494Z,64.70
2022-09-11T18:44:35.580Z,64.90
2022-09-11T18:47:03.548Z,64.60
2022-09-11T18:49:31.527Z,64.60
2022-09-11T18:52:00.425Z,65.00
2022-09-11T18:54:29.984Z,64.90
2022-09-11T18:56:57.875Z,65.60
2022-09-11T18:59:27.269Z,65.50
2022-09-11T19:01:55.292Z,64.40
2022-09-11T19:04:24.235Z,65.20
2022-09-11T19:06:52.115Z,64.30
2022-09-11T19:09:20.090Z,64.30
2022-09-11T19:11:48.020Z,64.20
2022-09-11T19:14:15.872Z,64.20
2022-09-11T19:16:45.823Z,64.50
2022-09-11T19:19:13.643Z,64.10
2022-09-11T19:21:41.496Z,64.10
2022-09-11T19:24:09.345Z,64.40
2022-09-11T19:26:39.189Z,64.40
2022-09-11T19:29:08.620Z,64.50
2022-09-11T19:31:39.195Z,64.10
2022-09-11T19:34:11.786Z,64.20
2022-09-11T19:36:40.312Z,64.70
2022-09-11T19:39:08.260Z,64.50
2022-09-11T19:41:38.918Z,63.90
2022-09-11T19:44:09.032Z,63.90
2022-09-11T19:46:38.097Z,63.90
2022-09-11T19:49:08.302Z,63.80
2022-09-11T19:51:38.193Z,63.80
2022-09-11T19:54:06.946Z,63.80
2022-09-11T19:56:37.303Z,63.70
2022-09-11T19:59:05.959Z,63.60
2022-09-11T20:01:34.020Z,63.80
2022-09-11T20:04:02.117Z,64.40
2022-09-11T20:06:33.674Z,64.90
2022-09-11T20:11:50.019Z,64.50
2022-09-11T20:14:18.126Z,63.80
2022-09-11T20:16:46.061Z,64.30
2022-09-11T20:19:15.043Z,64.10
2022-09-11T20:21:44.553Z,64.40
2022-09-11T20:24:12.657Z,63.70
2022-09-11T20:26:40.673Z,63.10
2022-09-11T20:29:13.365Z,63.50
2022-09-11T20:31:47.547Z,63.30
2022-09-11T20:34:16.348Z,64.70
2022-09-11T20:36:45.642Z,64.00
2022-09-11T20:39:15.240Z,64.30
2022-09-11T20:41:43.281Z,65.00
2022-09-11T20:44:11.632Z,64.80
2022-09-11T20:46:39.691Z,65.00
2022-09-11T20:49:07.636Z,64.70
2022-09-11T20:51:35.544Z,65.50
2022-09-11T20:54:04.880Z,66.30
2022-09-11T20:56:32.859Z,66.00
2022-09-11T20:59:00.987Z,65.00
2022-09-11T21:01:32.343Z,65.30
2022-09-11T21:04:00.844Z,65.80
2022-09-11T21:06:31.437Z,66.50
2022-09-11T21:09:01.521Z,66.40
2022-09-11T21:11:31.633Z,65.70
2022-09-11T21:14:00.291Z,66.20
2022-09-11T21:16:28.651Z,66.70
2022-09-11T21:18:58.528Z,66.20
2022-09-11T21:21:27.930Z,65.50
2022-09-11T21:23:56.694Z,66.00
2022-09-11T21:26:26.230Z,66.10
2022-09-11T21:28:56.628Z,65.10
2022-09-11T21:31:24.851Z,65.00
2022-09-11T21:33:53.225Z,65.10
2022-09-11T21:36:21.104Z,64.40
2022-09-11T21:38:49.064Z,65.00
2022-09-11T21:41:16.935Z,66.10
2022-09-11T21:43:45.076Z,66.80
2022-09-11T21:46:14.499Z,65.80
2022-09-11T21:48:42.926Z,65.50
2022-09-11T21:51:12.947Z,64.90
2022-09-11T21:53:43.263Z,64.40
2022-09-11T21:56:19.817Z,64.50
2022-09-11T21:58:47.769Z,64.40
2022-09-11T22:01:17.025Z,63.50
2022-09-11T22:03:45.367Z,64.80
2022-09-11T22:06:14.311Z,65.20
2022-09-11T22:08:43.564Z,65.30
2022-09-11T22:11:11.848Z,64.90
2022-09-11T22:13:40.673Z,64.20
2022-09-11T22:16:11.032Z,64.70
2022-09-11T22:18:41.758Z,65.40
2022-09-11T22:21:10.784Z,65.80
2022-09-11T22:23:38.869Z,66.00
2022-09-11T22:26:08.709Z,66.60
2022-09-11T22:28:37.296Z,66.60
2022-09-11T22:31:08.276Z,65.70
2022-09-11T22:33:38.543Z,64.60
2022-09-11T22:36:13.246Z,64.20
2022-09-11T22:38:41.282Z,66.30
2022-09-11T22:41:09.307Z,65.60
2022-09-11T22:43:37.301Z,65.10
2022-09-11T22:46:06.188Z,65.20
2022-09-11T22:48:34.411Z,66.00
2022-09-11T22:51:02.669Z,66.40
2022-09-11T22:53:32.625Z,66.10
2022-09-11T22:56:00.983Z,66.10
2022-09-11T22:58:30.580Z,66.30
2022-09-11T23:01:00.587Z,65.20
2022-09-11T23:03:28.728Z,65.00
2022-09-11T23:06:14.638Z,65.20
2022-09-11T23:08:45.669Z,64.60
2022-09-11T23:11:15.988Z,64.70
2022-09-11T23:13:44.295Z,66.50
2022-09-11T23:16:13.779Z,66.40
2022-09-11T23:18:42.033Z,66.80
2022-09-11T23:21:10.122Z,66.10
2022-09-11T23:23:41.062Z,65.70
2022-09-11T23:26:11.161Z,65.80
2022-09-11T23:28:39.361Z,65.40
2022-09-11T23:31:12.329Z,65.30
2022-09-11T23:33:40.284Z,65.80
2022-09-11T23:36:09.050Z,66.20
2022-09-11T23:38:37.104Z,65.80
2022-09-11T23:41:05.793Z,64.70
2022-09-11T23:43:35.079Z,66.30
2022-09-11T23:46:03.142Z,65.30
2022-09-11T23:48:31.042Z,65.80
2022-09-11T23:51:00.951Z,65.60
2022-09-11T23:53:29.617Z,67.20
2022-09-11T23:55:58.193Z,67.40
2022-09-11T23:58:26.325Z,66.70
